sensor_id;sensor_type;location;lat;lon;timestamp;P1;durP1;ratioP1;P2;durP2;ratioP2
75810;SDS011;64449;50.016;19.954;2024-01-30T00:01:13;31.00;;;15.40;;
75810;SDS011;64449;50.016;19.954;2024-01-30T00:03:38;30.10;;;14.00;;
75810;SDS011;64449;50.016;19.954;2024-01-30T00:06:04;33.70;;;15.50;;
75810;SDS011;64449;50.016;19.954;2024-01-30T00:10:55;33.70;;;14.60;;
75810;SDS011;64449;50.016;19.954;2024-01-30T00:13:20;31.20;;;13.80;;
75810;SDS011;64449;50.016;19.954;2024-01-30T00:15:46;35.30;;;16.40;;
75810;SDS011;64449;50.016;19.954;2024-01-30T00:18:11;33.70;;;15.70;;
75810;SDS011;64449;50.016;19.954;2024-01-30T00:20:37;34.50;;;17.20;;
75810;SDS011;64449;50.016;19.954;2024-01-30T00:23:03;41.90;;;18.10;;
75810;SDS011;64449;50.016;19.954;2024-01-30T00:25:29;44.70;;;17.20;;
75810;SDS011;64449;50.016;19.954;2024-01-30T00:27:55;33.50;;;17.00;;
75810;SDS011;64449;50.016;19.954;2024-01-30T00:30:20;32.30;;;17.00;;
75810;SDS011;64449;50.016;19.954;2024-01-30T00:32:46;35.90;;;17.80;;
75810;SDS011;64449;50.016;19.954;2024-01-30T00:37:36;35.80;;;17.20;;
75810;SDS011;64449;50.016;19.954;2024-01-30T00:40:02;33.20;;;16.10;;
75810;SDS011;64449;50.016;19.954;2024-01-30T00:42:28;35.40;;;16.50;;
75810;SDS011;64449;50.016;19.954;2024-01-30T00:44:54;35.50;;;17.20;;
75810;SDS011;64449;50.016;19.954;2024-01-30T00:47:19;35.30;;;18.50;;
75810;SDS011;64449;50.016;19.954;2024-01-30T00:49:44;33.10;;;16.80;;
75810;SDS011;64449;50.016;19.954;2024-01-30T00:52:10;36.00;;;17.70;;
75810;SDS011;64449;50.016;19.954;2024-01-30T00:54:35;37.30;;;18.40;;
75810;SDS011;64449;50.016;19.954;2024-01-30T00:57:00;37.50;;;17.30;;
75810;SDS011;64449;50.016;19.954;2024-01-30T00:59:26;32.10;;;18.40;;
75810;SDS011;64449;50.016;19.954;2024-01-30T01:01:51;30.90;;;16.20;;
75810;SDS011;64449;50.016;19.954;2024-01-30T01:04:17;33.70;;;17.00;;
75810;SDS011;64449;50.016;19.954;2024-01-30T01:06:42;32.70;;;16.90;;
75810;SDS011;64449;50.016;19.954;2024-01-30T01:09:10;39.30;;;16.60;;
75810;SDS011;64449;50.016;19.954;2024-01-30T01:11:36;35.50;;;16.80;;
75810;SDS011;64449;50.016;19.954;2024-01-30T01:14:03;33.20;;;15.60;;
75810;SDS011;64449;50.016;19.954;2024-01-30T01:16:29;32.50;;;15.40;;
75810;SDS011;64449;50.016;19.954;2024-01-30T01:18:54;30.20;;;14.70;;
75810;SDS011;64449;50.016;19.954;2024-01-30T01:21:20;36.40;;;16.20;;
75810;SDS011;64449;50.016;19.954;2024-01-30T01:23:45;32.70;;;15.70;;
75810;SDS011;64449;50.016;19.954;2024-01-30T01:26:11;30.80;;;16.70;;
75810;SDS011;64449;50.016;19.954;2024-01-30T01:28:36;35.90;;;16.70;;
75810;SDS011;64449;50.016;19.954;2024-01-30T01:31:01;36.40;;;16.40;;
75810;SDS011;64449;50.016;19.954;2024-01-30T01:33:33;32.40;;;16.00;;
75810;SDS011;64449;50.016;19.954;2024-01-30T01:35:59;32.00;;;14.50;;
75810;SDS011;64449;50.016;19.954;2024-01-30T01:38:25;37.60;;;17.80;;
75810;SDS011;64449;50.016;19.954;2024-01-30T01:40:50;31.30;;;16.20;;
75810;SDS011;64449;50.016;19.954;2024-01-30T01:43:16;36.30;;;16.20;;
75810;SDS011;64449;50.016;19.954;2024-01-30T01:45:42;25.90;;;14.20;;
75810;SDS011;64449;50.016;19.954;2024-01-30T01:48:08;28.20;;;13.80;;
75810;SDS011;64449;50.016;19.954;2024-01-30T01:50:34;26.10;;;12.40;;
75810;SDS011;64449;50.016;19.954;2024-01-30T01:53:00;31.30;;;15.00;;
75810;SDS011;64449;50.016;19.954;2024-01-30T01:55:27;34.40;;;14.20;;
75810;SDS011;64449;50.016;19.954;2024-01-30T01:57:54;29.20;;;12.90;;
75810;SDS011;64449;50.016;19.954;2024-01-30T02:00:20;30.20;;;12.70;;
75810;SDS011;64449;50.016;19.954;2024-01-30T02:02:46;28.50;;;13.60;;
75810;SDS011;64449;50.016;19.954;2024-01-30T02:05:12;31.50;;;14.60;;
75810;SDS011;64449;50.016;19.954;2024-01-30T02:07:38;33.70;;;15.80;;
75810;SDS011;64449;50.016;19.954;2024-01-30T02:10:03;28.60;;;14.10;;
75810;SDS011;64449;50.016;19.954;2024-01-30T02:12:29;32.60;;;16.40;;
75810;SDS011;64449;50.016;19.954;2024-01-30T02:14:55;32.80;;;14.90;;
75810;SDS011;64449;50.016;19.954;2024-01-30T02:17:20;31.20;;;13.50;;
75810;SDS011;64449;50.016;19.954;2024-01-30T02:19:48;27.50;;;13.00;;
75810;SDS011;64449;50.016;19.954;2024-01-30T02:22:14;35.80;;;15.00;;
75810;SDS011;64449;50.016;19.954;2024-01-30T02:24:39;33.90;;;14.10;;
75810;SDS011;64449;50.016;19.954;2024-01-30T02:27:05;27.10;;;13.40;;
75810;SDS011;64449;50.016;19.954;2024-01-30T02:29:30;29.00;;;14.00;;
75810;SDS011;64449;50.016;19.954;2024-01-30T02:31:56;29.20;;;14.00;;
75810;SDS011;64449;50.016;19.954;2024-01-30T02:34:21;22.40;;;11.80;;
75810;SDS011;64449;50.016;19.954;2024-01-30T02:36:47;24.40;;;11.40;;
75810;SDS011;64449;50.016;19.954;2024-01-30T02:39:12;24.90;;;12.50;;
75810;SDS011;64449;50.016;19.954;2024-01-30T02:41:37;23.70;;;12.30;;
75810;SDS011;64449;50.016;19.954;2024-01-30T02:44:03;24.00;;;11.40;;
75810;SDS011;64449;50.016;19.954;2024-01-30T02:46:29;26.00;;;13.10;;
75810;SDS011;64449;50.016;19.954;2024-01-30T02:48:55;33.90;;;14.70;;
75810;SDS011;64449;50.016;19.954;2024-01-30T02:51:20;30.20;;;13.80;;
75810;SDS011;64449;50.016;19.954;2024-01-30T02:53:46;28.40;;;13.60;;
75810;SDS011;64449;50.016;19.954;2024-01-30T02:56:11;28.80;;;13.10;;
75810;SDS011;64449;50.016;19.954;2024-01-30T02:58:38;29.10;;;14.00;;
75810;SDS011;64449;50.016;19.954;2024-01-30T03:01:05;27.70;;;12.90;;
75810;SDS011;64449;50.016;19.954;2024-01-30T03:03:33;28.00;;;13.00;;
75810;SDS011;64449;50.016;19.954;2024-01-30T03:06:01;28.40;;;14.40;;
75810;SDS011;64449;50.016;19.954;2024-01-30T03:08:27;26.20;;;12.60;;
75810;SDS011;64449;50.016;19.954;2024-01-30T03:10:52;29.60;;;14.50;;
75810;SDS011;64449;50.016;19.954;2024-01-30T03:13:18;29.90;;;12.90;;
75810;SDS011;64449;50.016;19.954;2024-01-30T03:15:43;30.30;;;13.30;;
75810;SDS011;64449;50.016;19.954;2024-01-30T03:18:09;26.00;;;14.30;;
75810;SDS011;64449;50.016;19.954;2024-01-30T03:20:34;31.60;;;14.20;;
75810;SDS011;64449;50.016;19.954;2024-01-30T03:22:59;28.90;;;13.10;;
75810;SDS011;64449;50.016;19.954;2024-01-30T03:25:25;27.90;;;12.70;;
75810;SDS011;64449;50.016;19.954;2024-01-30T03:27:50;30.40;;;14.50;;
75810;SDS011;64449;50.016;19.954;2024-01-30T03:30:16;27.50;;;13.10;;
75810;SDS011;64449;50.016;19.954;2024-01-30T03:32:42;29.70;;;14.10;;
75810;SDS011;64449;50.016;19.954;2024-01-30T03:35:08;27.60;;;13.40;;
75810;SDS011;64449;50.016;19.954;2024-01-30T03:37:34;32.20;;;14.40;;
75810;SDS011;64449;50.016;19.954;2024-01-30T03:39:59;29.30;;;13.80;;
75810;SDS011;64449;50.016;19.954;2024-01-30T03:42:24;27.20;;;13.70;;
75810;SDS011;64449;50.016;19.954;2024-01-30T03:44:50;30.20;;;13.90;;
75810;SDS011;64449;50.016;19.954;2024-01-30T03:47:20;26.20;;;13.20;;
75810;SDS011;64449;50.016;19.954;2024-01-30T03:49:46;27.90;;;13.40;;
75810;SDS011;64449;50.016;19.954;2024-01-30T03:54:37;28.60;;;11.00;;
75810;SDS011;64449;50.016;19.954;2024-01-30T03:57:02;24.40;;;11.40;;
75810;SDS011;64449;50.016;19.954;2024-01-30T03:59:28;25.10;;;12.30;;
75810;SDS011;64449;50.016;19.954;2024-01-30T04:01:54;33.10;;;13.60;;
75810;SDS011;64449;50.016;19.954;2024-01-30T04:04:19;27.90;;;13.80;;
75810;SDS011;64449;50.016;19.954;2024-01-30T04:06:45;25.90;;;13.10;;
75810;SDS011;64449;50.016;19.954;2024-01-30T04:09:12;28.50;;;12.60;;
75810;SDS011;64449;50.016;19.954;2024-01-30T04:11:38;27.00;;;13.10;;
75810;SDS011;64449;50.016;19.954;2024-01-30T04:14:04;25.50;;;12.10;;
75810;SDS011;64449;50.016;19.954;2024-01-30T04:16:29;25.80;;;12.80;;
75810;SDS011;64449;50.016;19.954;2024-01-30T04:18:55;27.20;;;11.90;;
75810;SDS011;64449;50.016;19.954;2024-01-30T04:21:21;25.50;;;11.90;;
75810;SDS011;64449;50.016;19.954;2024-01-30T04:23:47;32.70;;;12.30;;
75810;SDS011;64449;50.016;19.954;2024-01-30T04:26:14;33.50;;;12.50;;
75810;SDS011;64449;50.016;19.954;2024-01-30T04:28:44;25.30;;;12.20;;
75810;SDS011;64449;50.016;19.954;2024-01-30T04:31:10;31.00;;;11.80;;
75810;SDS011;64449;50.016;19.954;2024-01-30T04:33:36;27.60;;;12.40;;
75810;SDS011;64449;50.016;19.954;2024-01-30T04:36:01;21.90;;;10.40;;
75810;SDS011;64449;50.016;19.954;2024-01-30T04:38:28;23.90;;;10.80;;
75810;SDS011;64449;50.016;19.954;2024-01-30T04:40:53;21.70;;;10.80;;
75810;SDS011;64449;50.016;19.954;2024-01-30T04:43:18;23.80;;;11.80;;
75810;SDS011;64449;50.016;19.954;2024-01-30T04:45:44;26.70;;;10.80;;
75810;SDS011;64449;50.016;19.954;2024-01-30T04:50:35;23.30;;;10.40;;
75810;SDS011;64449;50.016;19.954;2024-01-30T04:53:01;24.40;;;11.60;;
75810;SDS011;64449;50.016;19.954;2024-01-30T04:55:26;22.90;;;12.10;;
75810;SDS011;64449;50.016;19.954;2024-01-30T04:57:51;26.80;;;12.00;;
75810;SDS011;64449;50.016;19.954;2024-01-30T05:00:17;24.90;;;11.60;;
75810;SDS011;64449;50.016;19.954;2024-01-30T05:05:08;28.00;;;10.60;;
75810;SDS011;64449;50.016;19.954;2024-01-30T05:07:33;21.70;;;10.00;;
75810;SDS011;64449;50.016;19.954;2024-01-30T05:12:25;30.00;;;10.60;;
75810;SDS011;64449;50.016;19.954;2024-01-30T05:14:50;26.30;;;12.10;;
75810;SDS011;64449;50.016;19.954;2024-01-30T05:19:42;26.70;;;11.10;;
75810;SDS011;64449;50.016;19.954;2024-01-30T05:22:08;28.90;;;12.40;;
75810;SDS011;64449;50.016;19.954;2024-01-30T05:27:00;27.40;;;10.10;;
75810;SDS011;64449;50.016;19.954;2024-01-30T05:29:26;29.90;;;11.50;;
75810;SDS011;64449;50.016;19.954;2024-01-30T05:31:52;28.40;;;12.30;;
75810;SDS011;64449;50.016;19.954;2024-01-30T05:34:17;27.10;;;13.00;;
75810;SDS011;64449;50.016;19.954;2024-01-30T05:36:42;30.10;;;14.10;;
75810;SDS011;64449;50.016;19.954;2024-01-30T05:39:08;30.90;;;14.70;;
75810;SDS011;64449;50.016;19.954;2024-01-30T05:41:33;30.30;;;13.60;;
75810;SDS011;64449;50.016;19.954;2024-01-30T05:43:59;34.60;;;15.10;;
75810;SDS011;64449;50.016;19.954;2024-01-30T05:46:24;33.80;;;15.00;;
75810;SDS011;64449;50.016;19.954;2024-01-30T05:48:50;34.40;;;14.80;;
75810;SDS011;64449;50.016;19.954;2024-01-30T05:51:15;35.80;;;17.20;;
75810;SDS011;64449;50.016;19.954;2024-01-30T05:53:41;33.50;;;15.60;;
75810;SDS011;64449;50.016;19.954;2024-01-30T05:56:06;27.30;;;13.60;;
75810;SDS011;64449;50.016;19.954;2024-01-30T05:58:32;32.20;;;16.30;;
75810;SDS011;64449;50.016;19.954;2024-01-30T06:03:23;24.50;;;10.00;;
75810;SDS011;64449;50.016;19.954;2024-01-30T06:05:48;29.40;;;12.60;;
75810;SDS011;64449;50.016;19.954;2024-01-30T06:08:14;32.30;;;14.40;;
75810;SDS011;64449;50.016;19.954;2024-01-30T06:10:39;31.30;;;15.20;;
75810;SDS011;64449;50.016;19.954;2024-01-30T06:13:05;26.20;;;12.50;;
75810;SDS011;64449;50.016;19.954;2024-01-30T06:15:31;29.00;;;13.40;;
75810;SDS011;64449;50.016;19.954;2024-01-30T06:17:57;26.30;;;12.50;;
75810;SDS011;64449;50.016;19.954;2024-01-30T06:20:23;27.20;;;12.20;;
75810;SDS011;64449;50.016;19.954;2024-01-30T06:22:49;26.60;;;13.20;;
75810;SDS011;64449;50.016;19.954;2024-01-30T06:25:14;23.10;;;11.50;;
75810;SDS011;64449;50.016;19.954;2024-01-30T06:27:41;25.00;;;12.30;;
75810;SDS011;64449;50.016;19.954;2024-01-30T06:30:06;28.50;;;13.70;;
75810;SDS011;64449;50.016;19.954;2024-01-30T06:32:32;26.70;;;12.70;;
75810;SDS011;64449;50.016;19.954;2024-01-30T06:34:59;26.90;;;12.30;;
75810;SDS011;64449;50.016;19.954;2024-01-30T06:37:25;30.90;;;13.60;;
75810;SDS011;64449;50.016;19.954;2024-01-30T06:39:51;23.00;;;11.70;;
75810;SDS011;64449;50.016;19.954;2024-01-30T06:42:17;27.70;;;12.90;;
75810;SDS011;64449;50.016;19.954;2024-01-30T06:44:43;33.50;;;12.60;;
75810;SDS011;64449;50.016;19.954;2024-01-30T06:49:34;22.60;;;12.20;;
75810;SDS011;64449;50.016;19.954;2024-01-30T06:52:00;31.20;;;13.50;;
75810;SDS011;64449;50.016;19.954;2024-01-30T06:54:25;31.20;;;14.90;;
75810;SDS011;64449;50.016;19.954;2024-01-30T06:56:50;30.30;;;13.30;;
75810;SDS011;64449;50.016;19.954;2024-01-30T06:59:16;37.20;;;16.50;;
75810;SDS011;64449;50.016;19.954;2024-01-30T07:01:41;30.00;;;13.80;;
75810;SDS011;64449;50.016;19.954;2024-01-30T07:04:07;26.90;;;13.70;;
75810;SDS011;64449;50.016;19.954;2024-01-30T07:06:32;24.80;;;14.30;;
75810;SDS011;64449;50.016;19.954;2024-01-30T07:08:57;25.30;;;13.00;;
75810;SDS011;64449;50.016;19.954;2024-01-30T07:11:23;31.60;;;14.30;;
75810;SDS011;64449;50.016;19.954;2024-01-30T07:13:50;29.00;;;13.00;;
75810;SDS011;64449;50.016;19.954;2024-01-30T07:16:16;28.80;;;13.50;;
75810;SDS011;64449;50.016;19.954;2024-01-30T07:18:41;28.20;;;13.30;;
75810;SDS011;64449;50.016;19.954;2024-01-30T07:21:08;30.90;;;14.00;;
75810;SDS011;64449;50.016;19.954;2024-01-30T07:23:33;25.30;;;12.50;;
75810;SDS011;64449;50.016;19.954;2024-01-30T07:26:00;26.80;;;13.10;;
75810;SDS011;64449;50.016;19.954;2024-01-30T07:28:26;32.40;;;13.80;;
75810;SDS011;64449;50.016;19.954;2024-01-30T07:30:51;27.50;;;12.80;;
75810;SDS011;64449;50.016;19.954;2024-01-30T07:33:17;25.60;;;13.70;;
75810;SDS011;64449;50.016;19.954;2024-01-30T07:35:43;32.00;;;14.40;;
75810;SDS011;64449;50.016;19.954;2024-01-30T07:38:10;27.50;;;13.10;;
75810;SDS011;64449;50.016;19.954;2024-01-30T07:40:36;24.60;;;12.30;;
75810;SDS011;64449;50.016;19.954;2024-01-30T07:45:28;26.90;;;12.50;;
75810;SDS011;64449;50.016;19.954;2024-01-30T07:47:57;26.40;;;12.70;;
75810;SDS011;64449;50.016;19.954;2024-01-30T07:50:23;24.30;;;12.60;;
75810;SDS011;64449;50.016;19.954;2024-01-30T07:52:48;30.90;;;13.90;;
75810;SDS011;64449;50.016;19.954;2024-01-30T07:55:16;28.00;;;14.10;;
75810;SDS011;64449;50.016;19.954;2024-01-30T07:57:42;29.20;;;13.90;;
75810;SDS011;64449;50.016;19.954;2024-01-30T08:00:08;30.10;;;15.70;;
75810;SDS011;64449;50.016;19.954;2024-01-30T08:02:34;30.40;;;14.60;;
75810;SDS011;64449;50.016;19.954;2024-01-30T08:07:24;28.70;;;14.00;;
75810;SDS011;64449;50.016;19.954;2024-01-30T08:12:15;26.60;;;13.70;;
75810;SDS011;64449;50.016;19.954;2024-01-30T08:17:06;29.70;;;14.90;;
75810;SDS011;64449;50.016;19.954;2024-01-30T08:19:32;28.50;;;15.10;;
75810;SDS011;64449;50.016;19.954;2024-01-30T08:21:58;32.40;;;15.60;;
75810;SDS011;64449;50.016;19.954;2024-01-30T08:26:49;28.40;;;13.80;;
75810;SDS011;64449;50.016;19.954;2024-01-30T08:31:39;31.70;;;14.70;;
75810;SDS011;64449;50.016;19.954;2024-01-30T08:34:05;33.80;;;17.00;;
75810;SDS011;64449;50.016;19.954;2024-01-30T08:36:30;36.40;;;16.60;;
75810;SDS011;64449;50.016;19.954;2024-01-30T08:38:56;32.20;;;15.30;;
75810;SDS011;64449;50.016;19.954;2024-01-30T08:41:21;32.00;;;16.40;;
75810;SDS011;64449;50.016;19.954;2024-01-30T08:43:47;30.50;;;16.80;;
75810;SDS011;64449;50.016;19.954;2024-01-30T08:46:12;29.60;;;16.70;;
75810;SDS011;64449;50.016;19.954;2024-01-30T08:48:38;32.00;;;17.50;;
75810;SDS011;64449;50.016;19.954;2024-01-30T08:51:03;32.00;;;18.40;;
75810;SDS011;64449;50.016;19.954;2024-01-30T08:53:33;29.00;;;16.60;;
75810;SDS011;64449;50.016;19.954;2024-01-30T08:55:58;31.00;;;17.50;;
75810;SDS011;64449;50.016;19.954;2024-01-30T08:58:24;32.30;;;16.80;;
75810;SDS011;64449;50.016;19.954;2024-01-30T09:00:49;29.90;;;16.50;;
75810;SDS011;64449;50.016;19.954;2024-01-30T09:03:16;29.60;;;17.40;;
75810;SDS011;64449;50.016;19.954;2024-01-30T09:05:42;36.60;;;18.50;;
75810;SDS011;64449;50.016;19.954;2024-01-30T09:08:07;33.90;;;18.60;;
75810;SDS011;64449;50.016;19.954;2024-01-30T09:10:32;35.10;;;20.30;;
75810;SDS011;64449;50.016;19.954;2024-01-30T09:12:58;34.50;;;19.20;;
75810;SDS011;64449;50.016;19.954;2024-01-30T09:15:23;33.00;;;18.70;;
75810;SDS011;64449;50.016;19.954;2024-01-30T09:17:48;34.80;;;18.10;;
75810;SDS011;64449;50.016;19.954;2024-01-30T09:20:14;30.40;;;16.70;;
75810;SDS011;64449;50.016;19.954;2024-01-30T09:22:39;34.80;;;19.10;;
75810;SDS011;64449;50.016;19.954;2024-01-30T09:25:05;30.30;;;17.50;;
75810;SDS011;64449;50.016;19.954;2024-01-30T09:27:30;26.70;;;15.10;;
75810;SDS011;64449;50.016;19.954;2024-01-30T09:29:56;29.60;;;16.00;;
75810;SDS011;64449;50.016;19.954;2024-01-30T09:32:21;29.30;;;16.60;;
75810;SDS011;64449;50.016;19.954;2024-01-30T09:34:46;27.50;;;15.50;;
75810;SDS011;64449;50.016;19.954;2024-01-30T09:37:12;25.50;;;15.40;;
75810;SDS011;64449;50.016;19.954;2024-01-30T09:39:40;23.00;;;14.20;;
75810;SDS011;64449;50.016;19.954;2024-01-30T09:42:16;22.80;;;14.20;;
75810;SDS011;64449;50.016;19.954;2024-01-30T09:44:50;26.00;;;14.30;;
75810;SDS011;64449;50.016;19.954;2024-01-30T09:47:19;23.60;;;14.00;;
75810;SDS011;64449;50.016;19.954;2024-01-30T09:49:45;26.10;;;15.20;;
75810;SDS011;64449;50.016;19.954;2024-01-30T09:52:11;31.40;;;14.90;;
75810;SDS011;64449;50.016;19.954;2024-01-30T09:54:37;29.40;;;17.20;;
75810;SDS011;64449;50.016;19.954;2024-01-30T09:57:03;30.00;;;17.80;;
75810;SDS011;64449;50.016;19.954;2024-01-30T09:59:30;31.30;;;17.50;;
75810;SDS011;64449;50.016;19.954;2024-01-30T10:01:56;30.10;;;18.30;;
75810;SDS011;64449;50.016;19.954;2024-01-30T10:04:22;29.60;;;17.30;;
75810;SDS011;64449;50.016;19.954;2024-01-30T10:06:47;27.30;;;15.20;;
75810;SDS011;64449;50.016;19.954;2024-01-30T10:09:13;28.40;;;16.00;;
75810;SDS011;64449;50.016;19.954;2024-01-30T10:11:39;28.10;;;16.20;;
75810;SDS011;64449;50.016;19.954;2024-01-30T10:14:04;23.90;;;16.00;;
75810;SDS011;64449;50.016;19.954;2024-01-30T10:16:30;26.80;;;15.70;;
75810;SDS011;64449;50.016;19.954;2024-01-30T10:18:55;27.60;;;15.70;;
75810;SDS011;64449;50.016;19.954;2024-01-30T10:21:21;25.80;;;15.10;;
75810;SDS011;64449;50.016;19.954;2024-01-30T10:23:46;24.60;;;14.40;;
75810;SDS011;64449;50.016;19.954;2024-01-30T10:26:11;24.10;;;13.50;;
75810;SDS011;64449;50.016;19.954;2024-01-30T10:28:37;24.30;;;14.80;;
75810;SDS011;64449;50.016;19.954;2024-01-30T10:31:03;21.40;;;14.80;;
75810;SDS011;64449;50.016;19.954;2024-01-30T10:33:29;23.20;;;14.40;;
75810;SDS011;64449;50.016;19.954;2024-01-30T10:35:56;20.10;;;13.20;;
75810;SDS011;64449;50.016;19.954;2024-01-30T10:38:28;24.80;;;14.40;;
75810;SDS011;64449;50.016;19.954;2024-01-30T10:40:58;20.10;;;13.30;;
75810;SDS011;64449;50.016;19.954;2024-01-30T10:43:33;20.60;;;13.00;;
75810;SDS011;64449;50.016;19.954;2024-01-30T10:46:21;20.50;;;13.30;;
75810;SDS011;64449;50.016;19.954;2024-01-30T10:48:56;23.90;;;14.00;;
75810;SDS011;64449;50.016;19.954;2024-01-30T10:51:26;23.10;;;14.20;;
75810;SDS011;64449;50.016;19.954;2024-01-30T10:53:52;22.40;;;16.20;;
75810;SDS011;64449;50.016;19.954;2024-01-30T10:56:22;24.10;;;15.80;;
75810;SDS011;64449;50.016;19.954;2024-01-30T10:58:49;33.00;;;19.90;;
75810;SDS011;64449;50.016;19.954;2024-01-30T11:01:16;23.40;;;14.70;;
75810;SDS011;64449;50.016;19.954;2024-01-30T11:03:42;20.00;;;13.30;;
75810;SDS011;64449;50.016;19.954;2024-01-30T11:06:10;16.70;;;9.80;;
75810;SDS011;64449;50.016;19.954;2024-01-30T11:08:43;16.60;;;11.10;;
75810;SDS011;64449;50.016;19.954;2024-01-30T11:11:11;15.20;;;10.70;;
75810;SDS011;64449;50.016;19.954;2024-01-30T11:13:37;15.20;;;10.70;;
75810;SDS011;64449;50.016;19.954;2024-01-30T11:16:03;17.60;;;10.90;;
75810;SDS011;64449;50.016;19.954;2024-01-30T11:18:30;16.70;;;11.70;;
75810;SDS011;64449;50.016;19.954;2024-01-30T11:21:00;18.90;;;11.90;;
75810;SDS011;64449;50.016;19.954;2024-01-30T11:23:29;16.70;;;11.30;;
75810;SDS011;64449;50.016;19.954;2024-01-30T11:25:55;18.70;;;13.50;;
75810;SDS011;64449;50.016;19.954;2024-01-30T11:28:21;19.20;;;12.00;;
75810;SDS011;64449;50.016;19.954;2024-01-30T11:30:48;18.20;;;11.30;;
75810;SDS011;64449;50.016;19.954;2024-01-30T11:33:26;18.20;;;12.50;;
75810;SDS011;64449;50.016;19.954;2024-01-30T11:35:56;17.40;;;12.70;;
75810;SDS011;64449;50.016;19.954;2024-01-30T11:38:23;17.20;;;12.90;;
75810;SDS011;64449;50.016;19.954;2024-01-30T11:40:51;18.80;;;11.10;;
75810;SDS011;64449;50.016;19.954;2024-01-30T11:43:16;20.40;;;12.80;;
75810;SDS011;64449;50.016;19.954;2024-01-30T11:45:42;18.40;;;11.30;;
75810;SDS011;64449;50.016;19.954;2024-01-30T11:48:09;17.80;;;11.80;;
75810;SDS011;64449;50.016;19.954;2024-01-30T11:50:37;18.40;;;11.80;;
75810;SDS011;64449;50.016;19.954;2024-01-30T11:53:05;20.10;;;12.20;;
75810;SDS011;64449;50.016;19.954;2024-01-30T11:55:30;18.60;;;12.10;;
75810;SDS011;64449;50.016;19.954;2024-01-30T11:57:56;15.50;;;10.70;;
75810;SDS011;64449;50.016;19.954;2024-01-30T12:00:22;16.10;;;10.40;;
75810;SDS011;64449;50.016;19.954;2024-01-30T12:02:51;17.90;;;9.70;;
75810;SDS011;64449;50.016;19.954;2024-01-30T12:05:21;15.40;;;10.60;;
75810;SDS011;64449;50.016;19.954;2024-01-30T12:07:47;17.30;;;11.00;;
75810;SDS011;64449;50.016;19.954;2024-01-30T12:10:13;15.20;;;10.50;;
75810;SDS011;64449;50.016;19.954;2024-01-30T12:12:39;15.90;;;10.30;;
75810;SDS011;64449;50.016;19.954;2024-01-30T12:15:07;15.70;;;9.80;;
75810;SDS011;64449;50.016;19.954;2024-01-30T12:17:33;15.60;;;9.60;;
75810;SDS011;64449;50.016;19.954;2024-01-30T12:20:05;14.90;;;10.60;;
75810;SDS011;64449;50.016;19.954;2024-01-30T12:22:33;17.00;;;11.60;;
75810;SDS011;64449;50.016;19.954;2024-01-30T12:25:02;13.90;;;9.70;;
75810;SDS011;64449;50.016;19.954;2024-01-30T12:27:29;15.10;;;9.00;;
75810;SDS011;64449;50.016;19.954;2024-01-30T12:29:57;14.80;;;9.50;;
75810;SDS011;64449;50.016;19.954;2024-01-30T12:32:23;17.70;;;10.10;;
75810;SDS011;64449;50.016;19.954;2024-01-30T12:34:49;14.50;;;9.10;;
75810;SDS011;64449;50.016;19.954;2024-01-30T12:37:14;13.90;;;9.60;;
75810;SDS011;64449;50.016;19.954;2024-01-30T12:39:45;14.60;;;9.40;;
75810;SDS011;64449;50.016;19.954;2024-01-30T12:42:10;13.80;;;9.10;;
75810;SDS011;64449;50.016;19.954;2024-01-30T12:44:36;15.40;;;10.20;;
75810;SDS011;64449;50.016;19.954;2024-01-30T12:47:05;16.40;;;9.30;;
75810;SDS011;64449;50.016;19.954;2024-01-30T12:49:30;15.00;;;9.30;;
75810;SDS011;64449;50.016;19.954;2024-01-30T12:51:56;14.40;;;8.50;;
75810;SDS011;64449;50.016;19.954;2024-01-30T12:54:22;16.90;;;10.00;;
75810;SDS011;64449;50.016;19.954;2024-01-30T12:56:48;26.40;;;16.50;;
75810;SDS011;64449;50.016;19.954;2024-01-30T12:59:13;25.60;;;16.00;;
75810;SDS011;64449;50.016;19.954;2024-01-30T13:01:39;22.30;;;14.10;;
75810;SDS011;64449;50.016;19.954;2024-01-30T13:04:04;18.80;;;12.50;;
75810;SDS011;64449;50.016;19.954;2024-01-30T13:06:30;21.20;;;11.90;;
75810;SDS011;64449;50.016;19.954;2024-01-30T13:08:55;19.30;;;12.10;;
75810;SDS011;64449;50.016;19.954;2024-01-30T13:11:21;20.50;;;11.70;;
75810;SDS011;64449;50.016;19.954;2024-01-30T13:13:46;19.70;;;12.10;;
75810;SDS011;64449;50.016;19.954;2024-01-30T13:16:12;16.80;;;10.70;;
75810;SDS011;64449;50.016;19.954;2024-01-30T13:18:37;18.90;;;11.20;;
75810;SDS011;64449;50.016;19.954;2024-01-30T13:21:02;17.90;;;11.30;;
75810;SDS011;64449;50.016;19.954;2024-01-30T13:23:28;17.40;;;11.30;;
75810;SDS011;64449;50.016;19.954;2024-01-30T13:25:53;16.90;;;11.50;;
75810;SDS011;64449;50.016;19.954;2024-01-30T13:28:22;19.50;;;10.70;;
75810;SDS011;64449;50.016;19.954;2024-01-30T13:30:48;17.80;;;11.90;;
75810;SDS011;64449;50.016;19.954;2024-01-30T13:33:14;19.40;;;11.40;;
75810;SDS011;64449;50.016;19.954;2024-01-30T13:35:39;24.20;;;12.00;;
75810;SDS011;64449;50.016;19.954;2024-01-30T13:38:04;18.60;;;12.50;;
75810;SDS011;64449;50.016;19.954;2024-01-30T13:40:30;22.00;;;12.30;;
75810;SDS011;64449;50.016;19.954;2024-01-30T13:42:55;16.70;;;10.50;;
75810;SDS011;64449;50.016;19.954;2024-01-30T13:45:21;18.40;;;12.90;;
75810;SDS011;64449;50.016;19.954;2024-01-30T13:47:46;20.00;;;11.00;;
75810;SDS011;64449;50.016;19.954;2024-01-30T13:50:11;17.80;;;12.10;;
75810;SDS011;64449;50.016;19.954;2024-01-30T13:52:40;17.70;;;11.80;;
75810;SDS011;64449;50.016;19.954;2024-01-30T13:55:06;19.50;;;12.00;;
75810;SDS011;64449;50.016;19.954;2024-01-30T13:57:32;25.40;;;15.10;;
75810;SDS011;64449;50.016;19.954;2024-01-30T14:00:00;30.50;;;19.10;;
75810;SDS011;64449;50.016;19.954;2024-01-30T14:02:26;22.70;;;13.30;;
75810;SDS011;64449;50.016;19.954;2024-01-30T14:04:51;27.40;;;14.50;;
75810;SDS011;64449;50.016;19.954;2024-01-30T14:07:17;21.90;;;11.80;;
75810;SDS011;64449;50.016;19.954;2024-01-30T14:09:44;19.70;;;12.30;;
75810;SDS011;64449;50.016;19.954;2024-01-30T14:12:09;23.80;;;12.40;;
75810;SDS011;64449;50.016;19.954;2024-01-30T14:14:34;18.70;;;11.80;;
75810;SDS011;64449;50.016;19.954;2024-01-30T14:17:00;18.10;;;11.00;;
75810;SDS011;64449;50.016;19.954;2024-01-30T14:19:26;20.10;;;11.80;;
75810;SDS011;64449;50.016;19.954;2024-01-30T14:21:51;20.40;;;11.30;;
75810;SDS011;64449;50.016;19.954;2024-01-30T14:24:17;19.20;;;11.40;;
75810;SDS011;64449;50.016;19.954;2024-01-30T14:26:42;26.60;;;14.70;;
75810;SDS011;64449;50.016;19.954;2024-01-30T14:29:07;22.70;;;13.10;;
75810;SDS011;64449;50.016;19.954;2024-01-30T14:31:33;22.60;;;14.20;;
75810;SDS011;64449;50.016;19.954;2024-01-30T14:33:58;21.20;;;12.80;;
75810;SDS011;64449;50.016;19.954;2024-01-30T14:36:25;21.40;;;12.30;;
75810;SDS011;64449;50.016;19.954;2024-01-30T14:38:53;21.20;;;13.50;;
75810;SDS011;64449;50.016;19.954;2024-01-30T14:41:20;22.20;;;13.50;;